createdAt,value
2018-09-18T00:00:26.304Z,16.30
2018-09-18T00:02:55.645Z,16.30
2018-09-18T00:05:25.018Z,16.20
2018-09-18T00:07:54.355Z,16.20
2018-09-18T00:10:23.712Z,16.20
2018-09-18T00:12:53.078Z,16.20
2018-09-18T00:15:22.414Z,16.10
2018-09-18T00:17:51.796Z,16.10
2018-09-18T00:20:21.159Z,16.10
2018-09-18T00:22:50.583Z,16.10
2018-09-18T00:25:19.980Z,16.10
2018-09-18T00:27:49.319Z,16.10
2018-09-18T00:30:18.647Z,16.10
2018-09-18T00:32:48.038Z,16.10
2018-09-18T00:35:17.436Z,16.10
2018-09-18T00:37:46.866Z,16.00
2018-09-18T00:40:16.192Z,16.00
2018-09-18T00:42:45.511Z,16.00
2018-09-18T00:45:14.872Z,16.00
2018-09-18T00:47:44.173Z,16.00
2018-09-18T00:50:13.535Z,16.00
2018-09-18T00:52:42.884Z,15.90
2018-09-18T00:55:12.244Z,15.90
2018-09-18T00:57:41.580Z,15.90
2018-09-18T01:00:11.003Z,15.90
2018-09-18T01:02:40.365Z,15.80
2018-09-18T01:05:09.732Z,15.90
2018-09-18T01:07:39.073Z,15.80
2018-09-18T01:10:08.447Z,15.80
2018-09-18T01:12:37.812Z,15.80
2018-09-18T01:15:07.279Z,15.80
2018-09-18T01:17:36.607Z,15.70
2018-09-18T01:20:06.000Z,15.70
2018-09-18T01:22:35.339Z,15.70
2018-09-18T01:25:04.691Z,15.70
2018-09-18T01:27:34.049Z,15.70
2018-09-18T01:30:03.394Z,15.60
2018-09-18T01:32:32.709Z,15.60
2018-09-18T01:35:02.065Z,15.60
2018-09-18T01:37:31.411Z,15.60
2018-09-18T01:40:00.763Z,15.60
2018-09-18T01:42:30.212Z,15.60
2018-09-18T01:44:59.595Z,15.60
2018-09-18T01:47:28.944Z,15.60
2018-09-18T01:49:58.279Z,15.60
2018-09-18T01:52:27.606Z,15.60
2018-09-18T01:54:56.999Z,15.60
2018-09-18T01:57:26.404Z,15.50
2018-09-18T01:59:55.748Z,15.60
2018-09-18T02:02:25.094Z,15.60
2018-09-18T02:04:54.426Z,15.50
2018-09-18T02:07:23.751Z,15.60
2018-09-18T02:09:53.188Z,15.50
2018-09-18T02:12:22.516Z,15.50
2018-09-18T02:14:51.885Z,15.50
2018-09-18T02:17:21.229Z,15.50
2018-09-18T02:19:51.166Z,15.50
2018-09-18T02:22:20.492Z,15.50
2018-09-18T02:24:49.830Z,15.50
2018-09-18T02:27:19.175Z,15.50
2018-09-18T02:29:48.563Z,15.40
2018-09-18T02:32:17.875Z,15.40
2018-09-18T02:34:47.227Z,15.40
2018-09-18T02:37:16.625Z,15.40
2018-09-18T02:39:45.952Z,15.40
2018-09-18T02:42:15.284Z,15.40
2018-09-18T02:44:44.612Z,15.30
2018-09-18T02:47:13.962Z,15.30
2018-09-18T02:49:43.283Z,15.30
2018-09-18T02:52:12.639Z,15.30
2018-09-18T02:54:42.152Z,15.30
2018-09-18T02:57:11.556Z,15.30
2018-09-18T02:59:40.889Z,15.30
2018-09-18T03:02:10.204Z,15.30
2018-09-18T03:04:39.659Z,15.30
2018-09-18T03:07:08.952Z,15.30
2018-09-18T03:09:38.349Z,15.30
2018-09-18T03:12:07.670Z,15.30
2018-09-18T03:14:37.045Z,15.20
2018-09-18T03:17:06.364Z,15.20
2018-09-18T03:19:35.730Z,15.20
2018-09-18T03:22:05.022Z,15.20
2018-09-18T03:24:34.392Z,15.20
2018-09-18T03:27:03.724Z,15.20
2018-09-18T03:29:33.085Z,15.20
2018-09-18T03:32:02.461Z,15.20
2018-09-18T03:34:31.875Z,15.20
2018-09-18T03:37:01.222Z,15.20
2018-09-18T03:39:30.607Z,15.20
2018-09-18T03:41:59.996Z,15.20
2018-09-18T03:44:29.364Z,15.20
2018-09-18T03:46:58.670Z,15.20
2018-09-18T03:49:28.016Z,15.10
2018-09-18T03:51:57.379Z,15.10
2018-09-18T03:54:26.776Z,15.10
2018-09-18T03:56:56.133Z,15.10
2018-09-18T03:59:25.510Z,15.10
2018-09-18T04:01:54.837Z,15.10
2018-09-18T04:04:24.239Z,15.10
2018-09-18T04:06:53.599Z,15.10
2018-09-18T04:09:22.941Z,15.10
2018-09-18T04:11:52.313Z,15.00
2018-09-18T04:14:21.672Z,15.00
2018-09-18T04:16:51.081Z,15.00
2018-09-18T04:19:20.513Z,15.00
2018-09-18T04:21:49.911Z,15.00
2018-09-18T04:24:19.359Z,15.00
2018-09-18T04:26:48.735Z,15.00
2018-09-18T04:29:18.316Z,14.90
2018-09-18T04:31:47.686Z,14.90
2018-09-18T04:34:17.032Z,14.90
2018-09-18T04:36:46.391Z,14.90
2018-09-18T04:39:15.708Z,14.90
2018-09-18T04:41:45.041Z,14.90
2018-09-18T04:44:15.059Z,14.90
2018-09-18T04:46:44.450Z,14.90
2018-09-18T04:49:13.791Z,14.90
2018-09-18T04:51:43.254Z,14.90
2018-09-18T04:54:12.589Z,14.90
2018-09-18T04:56:41.986Z,14.80
2018-09-18T04:59:11.334Z,14.90
2018-09-18T05:01:40.748Z,14.80
2018-09-18T05:04:10.200Z,14.80
2018-09-18T05:06:39.561Z,14.80
2018-09-18T05:09:10.933Z,14.80
2018-09-18T05:11:40.392Z,14.80
2018-09-18T05:14:09.764Z,14.80
2018-09-18T05:16:39.220Z,14.80
2018-09-18T05:19:08.610Z,14.80
2018-09-18T05:21:37.986Z,14.80
2018-09-18T05:24:07.505Z,14.80
2018-09-18T05:26:36.836Z,14.80
2018-09-18T05:29:06.219Z,14.80
2018-09-18T05:31:35.571Z,14.80
2018-09-18T05:34:04.910Z,14.80
2018-09-18T05:36:34.263Z,14.80
2018-09-18T05:39:03.787Z,14.80
2018-09-18T05:41:33.116Z,14.80
2018-09-18T05:44:02.494Z,14.80
2018-09-18T05:46:32.204Z,14.80
2018-09-18T05:49:01.576Z,14.80
2018-09-18T05:51:30.931Z,14.80
2018-09-18T05:54:00.264Z,14.90
2018-09-18T05:56:29.862Z,14.90
2018-09-18T05:58:59.219Z,14.90
2018-09-18T06:01:28.571Z,14.90
2018-09-18T06:03:57.917Z,14.90
2018-09-18T06:06:27.352Z,14.90
2018-09-18T06:08:56.684Z,15.00
2018-09-18T06:11:26.069Z,15.00
2018-09-18T06:13:55.390Z,15.00
2018-09-18T06:16:24.771Z,15.10
2018-09-18T06:18:54.138Z,15.10
2018-09-18T06:21:23.500Z,15.10
2018-09-18T06:23:52.859Z,15.20
2018-09-18T06:26:22.297Z,15.20
2018-09-18T06:28:51.711Z,15.30
2018-09-18T06:31:21.066Z,15.30
2018-09-18T06:33:50.508Z,15.40
2018-09-18T06:36:19.898Z,15.50
2018-09-18T06:38:49.272Z,15.50
2018-09-18T06:41:18.628Z,15.60
2018-09-18T06:43:47.971Z,15.70
2018-09-18T06:46:17.358Z,15.70
2018-09-18T06:48:46.793Z,15.80
2018-09-18T06:51:16.117Z,15.90
2018-09-18T06:53:45.487Z,15.90
2018-09-18T06:56:14.839Z,16.00
2018-09-18T06:58:44.374Z,16.10
2018-09-18T07:01:13.719Z,16.10
2018-09-18T07:03:43.122Z,16.20
2018-09-18T07:06:12.603Z,16.20
2018-09-18T07:08:41.996Z,16.30
2018-09-18T07:11:11.337Z,16.40
2018-09-18T07:13:40.699Z,16.50
2018-09-18T07:16:10.044Z,16.50
2018-09-18T07:18:39.380Z,16.60
2018-09-18T07:21:08.719Z,16.60
2018-09-18T07:23:38.109Z,16.70
2018-09-18T07:26:07.830Z,16.80
2018-09-18T07:28:37.208Z,16.80
2018-09-18T07:31:06.672Z,16.90
2018-09-18T07:33:36.033Z,17.00
2018-09-18T07:36:05.368Z,17.00
2018-09-18T07:38:34.689Z,17.00
2018-09-18T07:41:04.110Z,17.10
2018-09-18T07:43:33.362Z,17.10
2018-09-18T07:46:02.778Z,17.20
2018-09-18T07:48:36.045Z,17.20
2018-09-18T07:51:07.937Z,17.30
2018-09-18T07:53:37.336Z,17.30
2018-09-18T07:56:07.001Z,17.40
2018-09-18T07:58:36.400Z,17.50
2018-09-18T08:01:05.761Z,17.50
2018-09-18T08:03:35.122Z,17.50
2018-09-18T08:06:04.657Z,17.60
2018-09-18T08:08:34.000Z,17.60
2018-09-18T08:11:03.346Z,17.60
2018-09-18T08:13:32.706Z,17.70
2018-09-18T08:16:02.068Z,17.70
2018-09-18T08:18:31.441Z,17.80
2018-09-18T08:21:00.866Z,17.80
2018-09-18T08:23:30.268Z,17.90
2018-09-18T08:25:59.611Z,17.90
2018-09-18T08:28:28.990Z,17.90
2018-09-18T08:30:58.343Z,18.00
2018-09-18T08:33:27.756Z,18.00
2018-09-18T08:35:57.092Z,18.10
2018-09-18T08:38:26.629Z,18.10
2018-09-18T08:40:56.007Z,18.20
2018-09-18T08:43:25.338Z,18.20
2018-09-18T08:45:54.762Z,18.30
2018-09-18T08:48:28.399Z,18.30
2018-09-18T08:50:58.145Z,18.40
2018-09-18T08:53:27.529Z,18.40
2018-09-18T08:55:56.893Z,18.50
2018-09-18T08:58:26.232Z,18.50
2018-09-18T09:00:55.583Z,18.60
2018-09-18T09:03:24.952Z,18.70
2018-09-18T09:05:54.301Z,18.70
2018-09-18T09:08:23.551Z,18.80
2018-09-18T09:10:52.909Z,18.90
2018-09-18T09:13:22.217Z,18.90
2018-09-18T09:15:51.664Z,19.00
2018-09-18T09:18:20.994Z,19.10
2018-09-18T09:20:50.400Z,19.10
2018-09-18T09:23:19.660Z,19.20
2018-09-18T09:25:49.024Z,19.20
2018-09-18T09:28:18.371Z,19.30
2018-09-18T09:30:47.744Z,19.30
2018-09-18T09:33:17.073Z,19.40
2018-09-18T09:35:46.491Z,19.50
2018-09-18T09:38:15.877Z,19.50
2018-09-18T09:40:45.224Z,19.60
2018-09-18T09:43:14.592Z,19.60
2018-09-18T09:45:44.550Z,19.70
2018-09-18T09:48:13.873Z,19.70
2018-09-18T09:50:43.260Z,19.80
2018-09-18T09:53:12.595Z,19.90
2018-09-18T09:55:41.978Z,19.90
2018-09-18T09:58:11.297Z,19.90
2018-09-18T10:00:45.510Z,20.00
2018-09-18T10:03:15.531Z,20.00
2018-09-18T10:05:44.891Z,20.10
2018-09-18T10:08:14.284Z,20.20
2018-09-18T10:10:43.741Z,20.20
2018-09-18T10:13:12.951Z,20.30
2018-09-18T10:15:42.398Z,20.30
2018-09-18T10:18:11.767Z,20.40
2018-09-18T10:20:41.143Z,20.40
2018-09-18T10:23:10.482Z,20.50
2018-09-18T10:25:39.899Z,20.50
2018-09-18T10:28:09.290Z,20.50
2018-09-18T10:30:38.656Z,20.60
2018-09-18T10:33:08.043Z,20.70
2018-09-18T10:35:37.401Z,20.70
2018-09-18T10:38:06.767Z,20.70
2018-09-18T10:40:36.108Z,20.80
2018-09-18T10:43:05.474Z,20.80
2018-09-18T10:45:34.879Z,20.80
2018-09-18T10:48:04.224Z,20.90
2018-09-18T10:50:33.586Z,20.90
2018-09-18T10:53:02.926Z,21.00
2018-09-18T10:55:32.442Z,21.00
2018-09-18T10:58:01.776Z,21.10
2018-09-18T11:00:31.114Z,21.10
2018-09-18T11:03:00.435Z,21.10
2018-09-18T11:05:29.812Z,21.20
2018-09-18T11:07:59.215Z,21.20
2018-09-18T11:10:28.628Z,21.20
2018-09-18T11:12:57.944Z,21.20
2018-09-18T11:15:27.551Z,21.30
2018-09-18T11:17:56.817Z,21.30
2018-09-18T11:20:26.172Z,21.40
2018-09-18T11:22:55.510Z,21.40
2018-09-18T11:25:24.877Z,21.40
2018-09-18T11:27:54.212Z,21.50
2018-09-18T11:30:23.565Z,21.50
2018-09-18T11:32:53.028Z,21.50
2018-09-18T11:35:22.216Z,21.60
2018-09-18T11:37:51.579Z,21.60
2018-09-18T11:40:20.933Z,21.60
2018-09-18T11:42:50.243Z,21.70
2018-09-18T11:45:19.590Z,21.70
2018-09-18T11:47:48.912Z,21.80
2018-09-18T11:50:18.270Z,21.80
2018-09-18T11:52:47.685Z,21.90
2018-09-18T11:55:17.082Z,21.90
2018-09-18T11:57:46.447Z,21.90
2018-09-18T12:00:15.927Z,21.90
2018-09-18T12:02:45.421Z,22.00
2018-09-18T12:05:14.869Z,22.00
2018-09-18T12:07:44.244Z,22.00
2018-09-18T12:10:13.603Z,22.10
2018-09-18T12:12:42.986Z,22.10
2018-09-18T12:15:12.369Z,22.10
2018-09-18T12:17:41.754Z,22.20
2018-09-18T12:20:11.380Z,22.20
2018-09-18T12:22:40.826Z,22.20
2018-09-18T12:25:10.207Z,22.30
2018-09-18T12:27:39.582Z,22.30
2018-09-18T12:30:09.261Z,22.30
2018-09-18T12:32:38.633Z,22.40
2018-09-18T12:35:08.036Z,22.40
2018-09-18T12:37:37.377Z,22.40
2018-09-18T12:40:06.750Z,22.40
2018-09-18T12:42:36.249Z,22.50
2018-09-18T12:45:05.478Z,22.50
2018-09-18T12:47:34.836Z,22.50
2018-09-18T12:50:04.360Z,22.50
2018-09-18T12:52:33.591Z,22.50
2018-09-18T12:55:02.978Z,22.60
2018-09-18T12:57:32.480Z,22.60
2018-09-18T13:00:01.789Z,22.60
2018-09-18T13:02:31.129Z,22.60
2018-09-18T13:05:00.533Z,22.60
2018-09-18T13:07:29.943Z,22.60
2018-09-18T13:09:59.332Z,22.60
2018-09-18T13:12:28.676Z,22.70
2018-09-18T13:14:58.062Z,22.70
2018-09-18T13:17:27.406Z,22.70
2018-09-18T13:19:56.808Z,22.70
2018-09-18T13:22:26.110Z,22.70
2018-09-18T13:24:55.507Z,22.70
2018-09-18T13:27:24.872Z,22.80
2018-09-18T13:29:54.287Z,22.80
2018-09-18T13:32:23.673Z,22.80
2018-09-18T13:34:53.008Z,22.80
2018-09-18T13:37:22.360Z,22.90
2018-09-18T13:39:52.849Z,22.80
2018-09-18T13:42:22.226Z,22.90
2018-09-18T13:44:51.568Z,22.90
2018-09-18T13:47:20.958Z,22.90
2018-09-18T13:49:50.314Z,22.90
2018-09-18T13:52:19.730Z,22.90
2018-09-18T13:54:49.177Z,22.90
2018-09-18T13:57:18.578Z,23.00
2018-09-18T13:59:47.969Z,23.00
2018-09-18T14:02:18.255Z,23.00
2018-09-18T14:04:47.629Z,23.10
2018-09-18T14:07:16.956Z,23.10
2018-09-18T14:09:47.402Z,23.10
2018-09-18T14:12:17.313Z,23.20
2018-09-18T14:14:46.882Z,23.20
2018-09-18T14:17:16.329Z,23.20
2018-09-18T14:19:45.740Z,23.20
2018-09-18T14:22:15.183Z,23.30
2018-09-18T14:24:44.604Z,23.30
2018-09-18T14:27:13.991Z,23.30
2018-09-18T14:29:43.527Z,23.30
2018-09-18T14:32:12.947Z,23.30
2018-09-18T14:34:42.405Z,23.30
2018-09-18T14:37:11.798Z,23.40
2018-09-18T14:39:41.280Z,23.40
2018-09-18T14:42:10.656Z,23.40
2018-09-18T14:44:40.064Z,23.40
2018-09-18T14:47:09.460Z,23.40
2018-09-18T14:49:38.864Z,23.50
2018-09-18T14:52:08.323Z,23.40
2018-09-18T14:54:37.752Z,23.50
2018-09-18T14:57:07.114Z,23.50
2018-09-18T14:59:36.492Z,23.60
2018-09-18T15:02:05.905Z,23.60
2018-09-18T15:04:35.318Z,23.60
2018-09-18T15:07:04.692Z,23.60
2018-09-18T15:09:34.049Z,23.60
2018-09-18T15:12:03.482Z,23.60
2018-09-18T15:14:32.831Z,23.60
2018-09-18T15:17:02.221Z,23.60
2018-09-18T15:19:35.322Z,23.70
2018-09-18T15:22:06.554Z,23.60
2018-09-18T15:24:37.756Z,23.70
2018-09-18T15:27:07.193Z,23.70
2018-09-18T15:29:36.601Z,23.60
2018-09-18T15:32:06.217Z,23.70
2018-09-18T16:13:57.897Z,21.50
2018-09-18T16:16:27.335Z,21.40
2018-09-18T16:18:56.858Z,21.50
2018-09-18T16:21:26.285Z,21.70
2018-09-18T16:23:55.822Z,21.90
2018-09-18T16:26:25.239Z,22.10
2018-09-18T16:28:54.703Z,22.20
2018-09-18T16:31:24.128Z,22.40
2018-09-18T16:33:53.613Z,22.50
2018-09-18T16:36:23.043Z,22.60
2018-09-18T16:38:52.589Z,22.70
2018-09-18T16:41:22.101Z,22.80
2018-09-18T16:43:51.557Z,22.90
2018-09-18T16:46:21.179Z,23.00
2018-09-18T16:48:50.669Z,23.10
2018-09-18T16:51:20.148Z,23.10
2018-09-18T16:53:49.637Z,23.10
2018-09-18T16:56:19.053Z,23.20
2018-09-18T16:58:48.493Z,23.20
2018-09-18T17:01:17.887Z,23.20
2018-09-18T17:03:47.436Z,23.30
2018-09-18T17:06:16.877Z,23.30
2018-09-18T17:08:46.312Z,23.40
2018-09-18T17:11:15.706Z,23.40
2018-09-18T17:13:45.192Z,23.40
2018-09-18T17:16:26.192Z,23.40
2018-09-18T17:18:55.607Z,23.40
2018-09-18T17:21:25.043Z,23.30
2018-09-18T17:23:54.511Z,23.40
2018-09-18T17:26:23.928Z,23.40
2018-09-18T17:28:53.522Z,23.40
2018-09-18T17:31:22.810Z,23.50
2018-09-18T17:33:52.276Z,23.50
2018-09-18T17:36:21.695Z,23.50
2018-09-18T17:38:51.070Z,23.50
2018-09-18T17:41:20.517Z,23.50
2018-09-18T17:43:49.957Z,23.50
2018-09-18T17:46:19.397Z,23.50
2018-09-18T17:48:48.924Z,23.50
2018-09-18T17:51:18.363Z,23.50
2018-09-18T17:53:48.424Z,23.50
2018-09-18T17:56:17.916Z,23.40
2018-09-18T17:58:47.361Z,23.40
2018-09-18T18:01:16.968Z,23.40
2018-09-18T18:03:46.365Z,23.40
2018-09-18T18:06:15.867Z,23.40
2018-09-18T18:08:45.339Z,23.40
2018-09-18T18:11:14.827Z,23.40
2018-09-18T18:13:44.230Z,23.40
2018-09-18T18:16:13.713Z,23.40
2018-09-18T18:18:43.196Z,23.40
2018-09-18T18:21:12.675Z,23.40
2018-09-18T18:23:42.144Z,23.30
2018-09-18T18:26:11.698Z,23.30
2018-09-18T18:28:41.461Z,23.30
2018-09-18T18:31:10.931Z,23.30
2018-09-18T18:33:40.452Z,23.30
2018-09-18T18:36:09.905Z,23.30
2018-09-18T18:38:39.396Z,23.30
2018-09-18T18:41:08.871Z,23.20
2018-09-18T18:43:38.330Z,23.20
2018-09-18T18:46:08.001Z,23.20
2018-09-18T18:48:37.596Z,23.20
2018-09-18T18:51:07.008Z,23.10
2018-09-18T18:53:36.520Z,23.10
2018-09-18T18:56:06.213Z,23.10
2018-09-18T18:58:35.770Z,23.00
2018-09-18T19:01:05.194Z,23.00
2018-09-18T19:03:34.631Z,23.00
2018-09-18T19:06:04.166Z,23.00
2018-09-18T19:08:33.951Z,22.90
2018-09-18T19:11:03.459Z,22.90
2018-09-18T19:13:33.003Z,22.90
2018-09-18T19:16:02.571Z,22.90
2018-09-18T19:18:32.132Z,22.90
2018-09-18T19:21:01.515Z,22.90
2018-09-18T19:23:31.284Z,22.80
2018-09-18T19:26:00.937Z,22.80
2018-09-18T19:28:30.610Z,22.80
2018-09-18T19:31:00.104Z,22.60
2018-09-18T19:33:29.596Z,22.70
2018-09-18T19:35:59.148Z,22.70
2018-09-18T19:38:28.864Z,22.70
2018-09-18T19:40:58.737Z,22.70
2018-09-18T19:43:28.393Z,22.70
2018-09-18T19:45:58.018Z,22.70
2018-09-18T19:48:27.490Z,22.70
2018-09-18T19:50:56.940Z,22.70
2018-09-18T19:53:26.676Z,22.70
2018-09-18T19:55:56.163Z,22.70
2018-09-18T19:58:25.731Z,22.70
2018-09-18T20:00:55.337Z,22.60
2018-09-18T20:03:25.069Z,22.60
2018-09-18T20:05:54.592Z,22.60
2018-09-18T20:08:24.153Z,22.60
2018-09-18T20:10:53.796Z,22.50
2018-09-18T20:13:23.177Z,22.50
2018-09-18T20:15:52.671Z,22.50
2018-09-18T20:18:22.082Z,22.50
2018-09-18T20:20:51.728Z,22.40
2018-09-18T20:23:21.101Z,22.40
2018-09-18T20:25:50.659Z,22.30
2018-09-18T20:28:20.129Z,22.30
2018-09-18T20:30:49.779Z,22.20
2018-09-18T20:33:19.412Z,22.20
2018-09-18T20:35:49.035Z,22.20
2018-09-18T20:38:18.388Z,22.20
2018-09-18T20:40:47.856Z,22.10
2018-09-18T20:43:17.283Z,22.10
2018-09-18T20:45:46.917Z,22.10
2018-09-18T20:48:16.460Z,22.10
2018-09-18T20:50:46.021Z,22.00
2018-09-18T20:53:15.359Z,22.00
2018-09-18T20:55:45.003Z,22.00
2018-09-18T20:58:14.460Z,22.00
2018-09-18T21:00:43.842Z,22.00
2018-09-18T21:03:13.248Z,22.00
2018-09-18T21:05:42.996Z,22.00
2018-09-18T21:08:12.463Z,22.00
2018-09-18T21:10:42.141Z,22.00
2018-09-18T21:13:11.639Z,21.90
2018-09-18T21:15:41.110Z,21.90
2018-09-18T21:18:10.563Z,21.90
2018-09-18T21:20:40.023Z,21.90
2018-09-18T21:23:09.539Z,21.90
2018-09-18T21:26:15.778Z,21.90
2018-09-18T21:28:45.185Z,21.80
2018-09-18T21:31:14.757Z,21.80
2018-09-18T21:33:44.125Z,21.80
2018-09-18T21:36:13.504Z,21.80
2018-09-18T21:38:42.876Z,21.70
2018-09-18T21:41:12.251Z,21.70
2018-09-18T21:43:41.792Z,21.70
2018-09-18T21:46:11.272Z,21.60
2018-09-18T21:48:40.593Z,21.50
2018-09-18T21:51:10.343Z,21.60
2018-09-18T21:53:39.740Z,21.50
2018-09-18T21:56:09.183Z,21.50
2018-09-18T21:58:38.566Z,21.50
2018-09-18T22:01:07.972Z,21.40
2018-09-18T22:03:37.356Z,21.40
2018-09-18T22:06:06.832Z,21.40
2018-09-18T22:08:36.967Z,21.40
2018-09-18T22:11:06.371Z,21.40
2018-09-18T22:13:35.772Z,21.40
2018-09-18T22:16:05.181Z,21.40
2018-09-18T22:18:34.751Z,21.40
2018-09-18T22:21:04.107Z,21.30
2018-09-18T22:23:33.521Z,21.30
2018-09-18T22:26:03.028Z,21.30
2018-09-18T22:28:32.541Z,21.30
2018-09-18T22:31:02.060Z,21.20
2018-09-18T22:33:31.478Z,21.20
2018-09-18T22:36:00.987Z,21.20
2018-09-18T22:38:30.367Z,21.10
2018-09-18T22:40:59.932Z,21.10
2018-09-18T22:43:29.337Z,21.10
2018-09-18T22:45:58.728Z,21.00
2018-09-18T22:48:28.150Z,21.00
2018-09-18T22:50:57.613Z,21.00
2018-09-18T22:53:26.964Z,20.90
2018-09-18T22:55:56.320Z,20.90
2018-09-18T22:58:25.884Z,20.90
2018-09-18T23:00:55.233Z,20.90
2018-09-18T23:03:24.575Z,20.80
2018-09-18T23:05:54.031Z,20.80
2018-09-18T23:08:23.418Z,20.80
2018-09-18T23:10:52.782Z,20.70
2018-09-18T23:13:22.127Z,20.70
2018-09-18T23:15:51.501Z,20.70
2018-09-18T23:18:20.872Z,20.70
2018-09-18T23:20:50.200Z,20.70
2018-09-18T23:23:19.902Z,20.70
2018-09-18T23:25:49.307Z,20.70
2018-09-18T23:28:18.644Z,20.70
2018-09-18T23:30:48.004Z,20.70
2018-09-18T23:33:17.493Z,20.70
2018-09-18T23:35:46.829Z,20.60
2018-09-18T23:38:16.218Z,20.60
2018-09-18T23:40:45.667Z,20.60
2018-09-18T23:43:15.055Z,20.50
2018-09-18T23:45:44.422Z,20.60
2018-09-18T23:48:13.875Z,20.50
2018-09-18T23:50:43.306Z,20.50
2018-09-18T23:53:12.715Z,20.50
2018-09-18T23:55:42.205Z,20.50
2018-09-18T23:58:11.592Z,20.40
